Batavia, OH

2:30 AM EST on February 10, 2016 (GMT -0500)
Clermont County, Batavia

Weather History for KI69 - December, 2013

Change the Weather History Date:

Wednesday, December 11, 2013

  Actual Average (KLUK) Record (KLUK)
Temperature  
Mean Temperature 26 °F -  
Max Temperature 35 °F 45 °F 69 °F (2007)
Min Temperature 17 °F 28 °F 5 °F (1977)
Degree Days  
Heating Degree Days 39    
Moisture  
Dew Point 20 °F    
Average Humidity 75    
Maximum Humidity 100    
Minimum Humidity 56    
Precipitation  
Precipitation 0.00 in - - ()
Sea Level Pressure  
Sea Level Pressure 30.36 in    
Wind  
Wind Speed 6 mph (WSW)    
Max Wind Speed 17 mph    
Max Gust Speed 23 mph    
Visibility 10 miles    
Events Snow    
Averages and records for this station are not official NWS values.
T = Trace of Precipitation, MM = Missing Value Source: NWS Daily Summary

Daily Weather History Graph

Daily Weather History Graph

Search for Another Location

Airport or City:

Trip Planner

Search our weather history database for the weather conditions in past years. The results will help you decide how hot, cold, wet, or windy it might be!

Date:

Astronomy

Dec. 11, 2013 Rise Set
Actual Time 7:46 AM EST 5:14 PM EST
Civil Twilight 7:16 AM EST 5:44 PM EST
Nautical Twilight 6:42 AM EST 6:17 PM EST
Astronomical Twilight 6:10 AM EST 6:50 PM EST
Moon 1:45 PM EST (12/11) 2:08 AM EST (12/11)
Length of Visible Light 10h 28m
Length of Day
9h 28m
Waxing Gibbous, 71% of the Moon is Illuminated
Dec 11
Waxing Gibbous
Dec 17
Full
Dec 25
Last Quarter
Jan 1
New
Jan 7
First Quarter

Hourly Weather History & Observations

Time (EST) Temp. Windchill Dew Point Humidity Pressure Visibility Wind Dir Wind Speed Gust Speed Precip Events Conditions
12:13 AM 23.0 °F 17.0 °F 17.6 °F 80% 30.35 in 10.0 mi WSW 4.6 mph - N/A   Clear
12:34 AM 23.0 °F 17.0 °F 17.6 °F 80% 30.35 in 10.0 mi WSW 4.6 mph - N/A   Clear
12:54 AM 23.0 °F 17.0 °F 17.6 °F 80% 30.35 in 10.0 mi WSW 4.6 mph - N/A   Clear
1:13 AM 23.0 °F 18.4 °F 17.6 °F 80% 30.36 in 10.0 mi WSW 3.5 mph - N/A   Clear
1:34 AM 23.0 °F 18.4 °F 17.6 °F 80% 30.35 in 10.0 mi SW 3.5 mph - N/A   Clear
1:54 AM 21.2 °F 14.9 °F 17.6 °F 86% 30.35 in 10.0 mi SW 4.6 mph - N/A   Clear
2:13 AM 21.2 °F 14.9 °F 17.6 °F 86% 30.36 in 10.0 mi SW 4.6 mph - N/A   Clear
2:34 AM 21.2 °F 14.9 °F 17.6 °F 86% 30.36 in 10.0 mi SSW 4.6 mph - N/A   Clear
2:54 AM 21.2 °F 14.9 °F 17.6 °F 86% 30.36 in 10.0 mi SSW 4.6 mph - N/A   Clear
3:14 AM 19.4 °F 14.3 °F 15.8 °F 86% 30.37 in 10.0 mi SW 3.5 mph - N/A   Clear
3:34 AM 19.4 °F 14.3 °F 15.8 °F 86% 30.37 in 10.0 mi SW 3.5 mph - N/A   Clear
3:54 AM 19.4 °F - 15.8 °F 86% 30.37 in 10.0 mi Calm Calm - N/A   Clear
4:14 AM 17.6 °F - 14.0 °F 86% 30.37 in 10.0 mi Calm Calm - N/A   Clear
4:34 AM 19.4 °F - 17.6 °F 93% 30.37 in 10.0 mi Calm Calm - N/A   Clear
4:54 AM 19.4 °F - 15.8 °F 86% 30.36 in 10.0 mi Calm Calm - N/A   Clear
5:14 AM 19.4 °F 12.8 °F 17.6 °F 93% 30.37 in 10.0 mi SW 4.6 mph - N/A   Clear
5:34 AM 19.4 °F 14.3 °F 17.6 °F 93% 30.36 in 10.0 mi SW 3.5 mph - N/A   Clear
5:54 AM 19.4 °F - 19.4 °F 100% 30.36 in 10.0 mi Calm Calm - N/A   Clear
6:14 AM 19.4 °F 14.3 °F 17.6 °F 93% 30.35 in 10.0 mi South 3.5 mph - N/A   Clear
6:34 AM 19.4 °F - 17.6 °F 93% 30.35 in 10.0 mi Calm Calm - N/A   Clear
6:54 AM 19.4 °F - 17.6 °F 93% 30.35 in 10.0 mi Calm Calm - N/A   Clear
7:14 AM 17.6 °F - 17.6 °F 100% 30.36 in 7.0 mi Calm Calm - N/A   Clear
7:34 AM 19.4 °F 11.5 °F 19.4 °F 100% 30.35 in 10.0 mi SSW 5.8 mph - N/A   Clear
7:54 AM 21.2 °F 16.4 °F 19.4 °F 93% 30.36 in 10.0 mi SSW 3.5 mph - N/A   Clear
8:59 AM 23.0 °F 17.0 °F 21.2 °F 93% 30.37 in 10.0 mi SSW 4.6 mph - N/A   Clear
9:14 AM 24.8 °F 19.1 °F 23.0 °F 93% 30.37 in 10.0 mi SSW 4.6 mph - N/A   Clear
9:34 AM 26.6 °F 22.6 °F 23.0 °F 86% 30.37 in 10.0 mi SSW 3.5 mph - N/A   Clear
9:53 AM 26.6 °F 19.1 °F 23.0 °F 86% 30.37 in 10.0 mi SW 6.9 mph - N/A   Clear
10:14 AM 28.4 °F 23.3 °F 23.0 °F 80% 30.38 in 10.0 mi SW 4.6 mph - N/A   Clear
10:34 AM 30.2 °F 22.6 °F 23.0 °F 75% 30.37 in 10.0 mi SW 8.1 mph - N/A   Clear
10:53 AM 30.2 °F 21.9 °F 23.0 °F 75% 30.36 in 10.0 mi SW 9.2 mph - N/A   Clear
11:14 AM 32.0 °F 25.6 °F 23.0 °F 69% 30.35 in 10.0 mi SW 6.9 mph - N/A   Clear
11:34 AM 32.0 °F 25.6 °F 23.0 °F 69% 30.35 in 10.0 mi WSW 6.9 mph - N/A   Clear
11:53 AM 32.0 °F 22.1 °F 21.2 °F 64% 30.33 in 10.0 mi SW 13.8 mph - N/A   Clear
12:14 PM 32.0 °F 23.0 °F 23.0 °F 69% 30.32 in 10.0 mi SW 11.5 mph - N/A   Clear
12:34 PM 33.8 °F 25.8 °F 23.0 °F 65% 30.31 in 10.0 mi SW 10.4 mph - N/A   Clear
12:54 PM 33.8 °F 25.3 °F 23.0 °F 65% 30.29 in 10.0 mi SW 11.5 mph 17.3 mph N/A   Clear
1:14 PM 35.6 °F 28.6 °F 23.0 °F 60% 30.28 in 10.0 mi SW 9.2 mph 12.7 mph N/A   Clear
1:34 PM 35.6 °F 26.2 °F 21.2 °F 56% 30.27 in 10.0 mi WSW 15.0 mph 20.7 mph N/A   Clear
1:53 PM 35.6 °F 26.2 °F 21.2 °F 56% 30.27 in 10.0 mi SW 15.0 mph 23.0 mph N/A   Clear
2:14 PM 35.6 °F 26.2 °F 23.0 °F 60% 30.27 in 10.0 mi WSW 15.0 mph 18.4 mph N/A   Clear
2:34 PM 35.6 °F 27.1 °F 23.0 °F 60% 30.27 in 10.0 mi WSW 12.7 mph 17.3 mph N/A   Clear
2:53 PM 35.6 °F 25.5 °F 23.0 °F 60% 30.27 in 10.0 mi WSW 17.3 mph 21.9 mph N/A   Clear
3:14 PM 35.6 °F 26.6 °F 23.0 °F 60% 30.28 in 10.0 mi West 13.8 mph 21.9 mph N/A   Clear
3:34 PM 35.6 °F 25.5 °F 23.0 °F 60% 30.28 in 10.0 mi West 17.3 mph 21.9 mph N/A   Scattered Clouds
3:54 PM 35.6 °F 27.1 °F 23.0 °F 60% 30.28 in 10.0 mi WSW 12.7 mph - N/A   Clear
4:14 PM 35.6 °F 27.1 °F 23.0 °F 60% 30.30 in 10.0 mi West 12.7 mph 17.3 mph N/A   Scattered Clouds
4:34 PM 35.6 °F 29.2 °F 23.0 °F 60% 30.31 in 10.0 mi West 8.1 mph - N/A   Mostly Cloudy
4:54 PM 33.8 °F 26.4 °F 23.0 °F 65% 30.31 in 10.0 mi West 9.2 mph 18.4 mph N/A   Overcast
5:14 PM 33.8 °F 25.8 °F 24.8 °F 70% 30.32 in 10.0 mi West 10.4 mph 17.3 mph N/A   Overcast
5:34 PM 33.8 °F 26.4 °F 23.0 °F 65% 30.33 in 10.0 mi NW 9.2 mph - N/A   Overcast
5:54 PM 32.0 °F 22.1 °F 23.0 °F 69% 30.35 in 10.0 mi NW 13.8 mph - N/A   Overcast
6:14 PM 32.0 °F 23.6 °F 23.0 °F 69% 30.36 in 10.0 mi NW 10.4 mph - N/A   Overcast
6:34 PM 32.0 °F 24.2 °F 23.0 °F 69% 30.37 in 10.0 mi NW 9.2 mph 18.4 mph N/A   Overcast
6:54 PM 32.0 °F 25.6 °F 23.0 °F 69% 30.38 in 10.0 mi NW 6.9 mph 12.7 mph N/A   Overcast
7:14 PM 32.0 °F 24.8 °F 23.0 °F 69% 30.39 in 10.0 mi NW 8.1 mph 17.3 mph N/A   Overcast
7:34 PM 30.2 °F 20.2 °F 23.0 °F 75% 30.40 in 10.0 mi NNW 12.7 mph 18.4 mph N/A   Overcast
7:54 PM 30.2 °F 19.3 °F 23.0 °F 75% 30.41 in 10.0 mi NNW 15.0 mph 20.7 mph N/A   Overcast
8:14 PM 28.4 °F 17.5 °F 21.2 °F 74% 30.43 in 10.0 mi NNW 13.8 mph 21.9 mph N/A Snow Light Snow
8:34 PM 26.6 °F 14.7 °F 19.4 °F 74% 30.44 in 10.0 mi NNW 15.0 mph 19.6 mph N/A   Overcast
8:54 PM 26.6 °F 15.2 °F 19.4 °F 74% 30.45 in 10.0 mi NNW 13.8 mph 19.6 mph N/A Snow Light Snow
9:14 PM 26.6 °F 17.5 °F 19.4 °F 74% 30.45 in 10.0 mi NNW 9.2 mph 16.1 mph N/A   Overcast
9:34 PM 26.6 °F 17.5 °F 17.6 °F 69% 30.46 in 10.0 mi NNW 9.2 mph - N/A Snow Light Snow
9:54 PM 26.6 °F 17.5 °F 17.6 °F 69% 30.46 in 10.0 mi NNW 9.2 mph 17.3 mph N/A   Overcast
10:14 PM 24.8 °F 15.3 °F 14.0 °F 64% 30.47 in 10.0 mi NW 9.2 mph 16.1 mph N/A   Scattered Clouds
10:34 PM 23.0 °F 13.9 °F 14.0 °F 68% 30.48 in 10.0 mi NW 8.1 mph - N/A   Clear
10:54 PM 23.0 °F 13.1 °F 12.2 °F 63% 30.48 in 10.0 mi NW 9.2 mph - N/A   Mostly Cloudy
11:14 PM 23.0 °F 13.9 °F 12.2 °F 63% 30.49 in 10.0 mi NNW 8.1 mph - N/A   Overcast
11:34 PM 23.0 °F 13.9 °F 12.2 °F 63% 30.49 in 10.0 mi North 8.1 mph - N/A   Overcast
11:54 PM 23.0 °F 17.0 °F 12.2 °F 63% 30.49 in 10.0 mi North 4.6 mph - N/A   Overcast